Latest Weather Observations for Hobart Airport

IDT60801

Issued at 8:31 pm EDT Friday 2 December 2022 (issued every 10 minutes, with the page automatically refreshed every 10 minutes)

About weather observations | Map of weather stations | Latest weather observations for TAS | Other Formats
Station Details ID: 094250 Name: HOBART AIRPORT Lat: -42.83 Lon: 147.51 Height: 2.2 m
Data from the previous 72 hours. | See also: Recent months at Hobart Airport
Date/Time
EDT
Temp
°C
App
Temp
°C
Dew
Point
°C
Rel
Hum
%
Delta-T
°C
Wind Press
QNH
hPa
Press
MSL
hPa
Rain since
9am
mm
Dir  Spd
km/h
Gust
km/h
Spd
kts
Gust
kts
02/08:00pm 15.5 11.5 10.3 71 2.7 S 22 28 12 15 1016.5 1016.5 0.0
02/07:30pm 16.2 11.8 10.5 69 3.0 S 24 32 13 17 1016.3 1016.3 0.0
02/07:00pm 16.5 12.1 10.4 67 3.2 S 24 33 13 18 1016.1 1016.1 0.0
02/06:30pm 17.2 13.3 10.8 66 3.4 SSE 22 30 12 16 1015.8 1015.8 0.0
02/06:00pm 18.7 14.5 11.0 61 4.2 SSE 24 30 13 16 1015.7 1015.7 0.0
02/05:30pm 19.9 16.6 11.7 59 4.5 SE 20 24 11 13 1015.8 1015.8 0.0
02/05:00pm 20.0 16.0 10.4 54 5.2 SE 22 28 12 15 1015.9 1015.9 0.0
02/04:30pm 20.1 16.1 10.5 54 5.2 SE 22 30 12 16 1015.8 1015.8 0.0
02/04:00pm 20.1 15.9 11.1 56 4.9 SSE 24 30 13 16 1016.0 1016.0 0.0
02/03:30pm 20.5 17.1 11.2 55 5.1 SE 20 28 11 15 1016.2 1016.2 0.0
02/03:00pm 20.1 16.0 11.3 57 4.8 SSE 24 30 13 16 1016.7 1016.7 0.0
02/02:30pm 19.4 15.5 9.3 52 5.3 SE 20 26 11 14 1017.0 1017.0 0.0
02/02:00pm 19.0 14.2 8.9 52 5.3 SE 24 28 13 15 1017.6 1017.6 0.0
02/01:30pm 19.0 14.1 8.6 51 5.4 SSE 24 30 13 16 1017.9 1017.9 0.0
02/01:00pm 17.8 12.5 8.6 55 4.7 SE 26 32 14 17 1018.1 1018.1 0.0
02/12:30pm 18.9 16.9 8.8 52 5.3 ENE 9 20 5 11 1018.3 1018.3 0.0
02/12:00pm 18.7 16.8 9.2 54 5.0 NE 9 17 5 9 1018.6 1018.6 0.0
02/11:30am 18.3 15.8 8.3 52 5.1 NE 11 22 6 12 1018.5 1018.5 0.0
02/11:00am 18.0 15.9 9.6 58 4.4 NE 11 17 6 9 1018.8 1018.8 0.0
02/10:30am 17.2 15.3 8.9 58 4.3 NE 9 15 5 8 1019.0 1019.0 0.0
02/10:00am 16.5 14.1 8.5 59 4.1 NNE 11 19 6 10 1019.2 1019.2 0.0
02/09:30am 15.6 12.8 8.6 63 3.6 NNW 13 17 7 9 1019.5 1019.5 0.0
02/09:00am 15.0 12.5 8.3 64 3.4 NNE 11 19 6 10 1019.7 1019.7 0.0
02/08:30am 14.1 11.6 8.1 67 3.0 NNW 11 17 6 9 1019.6 1019.6 0.0
02/08:00am 13.2 10.0 7.0 66 3.0 NNW 13 19 7 10 1019.8 1019.8 0.0
02/07:30am 12.8 10.5 7.3 69 2.7 N 9 13 5 7 1019.6 1019.6 0.0
02/07:00am 11.6 9.4 7.9 78 1.8 NW 9 11 5 6 1019.5 1019.5 0.0
02/06:30am 10.3 8.5 7.9 85 1.2 NW 7 9 4 5 1019.4 1019.4 0.0
02/06:00am 8.2 6.2 6.3 88 0.9 NW 6 9 3 5 1019.3 1019.3 0.0
02/05:30am 9.6 7.6 7.0 84 1.2 N 7 9 4 5 1019.2 1019.2 0.0
02/05:00am 10.6 8.4 6.4 75 2.0 ENE 7 9 4 5 1019.0 1019.0 0.0
02/04:30am 11.0 8.9 6.6 74 2.1 S 7 7 4 4 1019.1 1019.1 0.0
02/04:00am 10.9 10.3 7.6 80 1.6 CALM 0 0 0 0 1019.2 1019.2 0.0
02/03:30am 11.1 10.5 7.2 77 1.9 CALM 0 0 0 0 1019.7 1019.7 0.0
02/03:00am 11.2 9.4 7.3 77 1.9 W 6 7 3 4 1019.6 1019.6 0.0
02/02:30am 11.3 9.5 7.0 75 2.0 NW 6 9 3 5 1019.9 1019.9 0.0
02/02:00am 11.3 10.7 7.4 77 1.9 CALM 0 0 0 0 1020.1 1020.1 0.0
02/01:30am 11.4 10.7 6.9 74 2.1 CALM 0 0 0 0 1020.1 1020.1 0.0
02/01:00am 11.7 11.1 7.2 74 2.2 CALM 0 0 0 0 1020.3 1020.3 0.0
02/12:30am 11.6 9.6 6.3 70 2.5 E 6 6 3 3 1020.5 1020.5 0.0
02/12:00am 11.6 9.5 5.9 68 2.6 NE 6 7 3 4 1020.7 1020.7 0.0
 
Date/Time
EDT
Temp
°C
App
Temp
°C
Dew
Point
°C
Rel
Hum
%
Delta-T
°C
Wind Press
QNH
hPa
Press
MSL
hPa
Rain since
9am
mm
Dir  Spd
km/h
Gust
km/h
Spd
kts
Gust
kts
01/11:30pm 11.8 10.9 5.9 67 2.8 CALM 0 0 0 0 1020.8 1020.8 0.0
01/11:00pm 11.9 9.3 6.0 67 2.8 SE 9 13 5 7 1020.9 1020.9 0.0
01/10:30pm 11.8 8.8 5.9 67 2.8 S 11 15 6 8 1021.0 1021.0 0.0
01/10:00pm 12.0 8.2 5.6 65 3.0 SSE 15 20 8 11 1021.0 1021.0 0.0
01/09:30pm 12.1 7.9 5.5 64 3.1 SSE 17 22 9 12 1020.7 1020.7 0.0
01/09:00pm 12.1 7.4 5.3 63 3.1 SSE 19 22 10 12 1020.4 1020.4 0.0
01/08:30pm 12.0 7.2 5.6 65 3.0 SSE 20 26 11 14 1020.3 1020.3 0.0
01/08:00pm 12.0 7.2 5.4 64 3.0 SSE 20 30 11 16 1020.1 1020.1 0.0
01/07:30pm 12.3 7.6 5.9 65 3.0 SSE 20 28 11 15 1019.8 1019.8 0.0
01/07:00pm 12.2 6.8 6.3 67 2.8 SSE 24 30 13 16 1019.3 1019.3 0.0
01/06:30pm 13.3 7.5 6.4 63 3.3 SSE 26 32 14 17 1018.6 1018.6 0.0
01/06:00pm 13.5 7.6 5.9 60 3.6 SSE 26 35 14 19 1018.3 1018.3 0.0
01/05:30pm 13.9 8.4 6.0 59 3.8 SSE 24 32 13 17 1018.3 1018.3 0.0
01/05:00pm 13.5 7.4 6.8 64 3.2 SSE 28 35 15 19 1018.3 1018.3 0.0
01/04:30pm 13.4 6.4 6.0 61 3.5 SSE 32 41 17 22 1018.3 1018.3 0.0
01/04:00pm 14.4 8.4 7.0 61 3.6 SSE 28 35 15 19 1017.9 1017.9 0.0
01/03:30pm 14.2 8.9 6.6 60 3.7 SSE 24 32 13 17 1017.9 1017.9 0.0
01/03:00pm 14.5 8.9 5.6 55 4.2 SE 24 30 13 16 1017.7 1017.7 0.0
01/02:30pm 14.4 9.6 5.5 55 4.2 SE 20 28 11 15 1017.6 1017.6 0.0
01/02:00pm 14.9 10.9 4.9 51 4.7 S 15 26 8 14 1017.7 1017.7 0.0
01/01:30pm 15.0 10.9 4.4 49 4.9 S 15 20 8 11 1017.9 1017.9 0.0
01/01:00pm 14.7 10.9 3.8 48 5.0 SW 13 20 7 11 1018.0 1018.0 0.0
01/12:30pm 14.9 10.8 4.3 49 4.9 WSW 15 24 8 13 1018.3 1018.3 0.0
01/12:00pm 13.9 9.3 3.7 50 4.6 S 17 26 9 14 1018.3 1018.3 0.0
01/11:30am 14.1 10.1 4.7 53 4.4 SSW 15 20 8 11 1018.5 1018.5 0.0
01/11:00am 13.6 8.7 3.9 52 4.4 SSW 19 28 10 15 1018.5 1018.5 0.0
01/10:30am 13.7 8.0 2.9 48 4.8 SW 22 32 12 17 1018.5 1018.5 0.0
01/10:00am 13.6 7.7 3.7 51 4.5 SW 24 35 13 19 1018.3 1018.3 0.0
01/09:30am 13.2 7.9 3.0 50 4.5 SW 20 26 11 14 1018.3 1018.3 0.0
01/09:00am 12.5 7.4 2.9 52 4.2 WSW 19 24 10 13 1018.1 1018.1 0.0
01/08:30am 12.2 6.9 2.9 53 4.1 SW 20 28 11 15 1018.1 1018.1 0.0
01/08:00am 12.0 6.6 2.7 53 4.0 SW 20 28 11 15 1017.7 1017.7 0.0
01/07:30am 11.9 7.8 4.2 59 3.5 SW 15 19 8 10 1017.3 1017.3 0.0
01/07:00am 11.6 10.2 7.3 75 2.1 NNW 4 7 2 4 1017.0 1017.0 0.0
01/06:30am 11.1 10.8 8.5 84 1.3 CALM 0 0 0 0 1016.9 1016.9 0.0
01/06:00am 10.9 9.1 8.1 83 1.4 NNW 7 9 4 5 1016.6 1016.6 0.0
01/05:30am 10.9 9.3 8.0 82 1.4 NNW 6 9 3 5 1016.1 1016.1 0.0
01/05:00am 10.9 8.7 8.0 82 1.4 NW 9 11 5 6 1015.9 1015.9 0.0
01/04:30am 11.1 10.5 7.4 78 1.8 CALM 0 0 0 0 1015.7 1015.7 0.0
01/04:00am 11.1 9.3 7.2 77 1.9 N 6 7 3 4 1015.4 1015.4 0.0
01/03:30am 10.5 9.5 7.4 81 1.5 N 2 9 1 5 1015.5 1015.5 0.0
01/03:00am 10.1 8.3 7.3 83 1.3 W 6 7 3 4 1015.6 1015.6 0.0
01/02:30am 9.9 8.1 7.3 84 1.2 WSW 6 7 3 4 1015.4 1015.4 0.0
01/02:00am 10.1 7.5 6.1 76 1.8 SE 9 11 5 6 1015.4 1015.4 0.0
01/01:30am 11.0 8.9 6.7 75 2.0 SSE 7 11 4 6 1015.4 1015.4 0.0
01/01:00am 11.3 8.1 6.8 74 2.1 SSE 13 17 7 9 1015.5 1015.5 0.0
01/12:30am 10.8 7.5 6.4 74 2.1 SSE 13 17 7 9 1015.6 1015.6 0.0
01/12:00am 11.7 9.3 7.2 74 2.2 SE 9 13 5 7 1015.6 1015.6 0.0
 
Date/Time
EDT
Temp
°C
App
Temp
°C
Dew
Point
°C
Rel
Hum
%
Delta-T
°C
Wind Press
QNH
hPa
Press
MSL
hPa
Rain since
9am
mm
Dir  Spd
km/h
Gust
km/h
Spd
kts
Gust
kts
30/11:30pm 12.6 10.3 7.3 70 2.6 ESE 9 15 5 8 1015.4 1015.4 0.0
30/11:00pm 13.1 11.1 7.1 67 2.9 SE 7 11 4 6 1015.4 1015.4 0.0
30/10:30pm 13.8 12.3 6.7 62 3.4 SW 4 9 2 5 1015.3 1015.3 0.0
30/10:00pm 13.7 11.3 7.0 64 3.2 S 9 17 5 9 1015.1 1015.1 0.0
30/09:30pm 13.6 10.9 7.2 65 3.1 SSW 11 15 6 8 1014.8 1014.8 0.0
30/09:00pm 14.1 11.4 7.4 64 3.3 SSE 11 17 6 9 1014.3 1014.3 0.0
30/08:30pm 14.4 13.0 9.4 72 2.6 SE 7 13 4 7 1014.0 1014.0 0.0
30/08:00pm 14.7 13.3 9.5 71 2.7 N 7 11 4 6 1013.6 1013.6 0.0
30/07:30pm 15.5 14.0 9.0 65 3.3 NE 7 11 4 6 1013.1 1013.1 0.0
30/07:00pm 16.5 13.7 8.7 60 4.0 NNW 13 20 7 11 1012.7 1012.7 0.0
30/06:30pm 19.0 15.3 6.2 43 6.3 W 15 26 8 14 1012.4 1012.4 0.0
30/06:00pm 18.9 14.5 6.7 45 6.1 WSW 19 24 10 13 1012.1 1012.1 0.0
30/05:30pm 19.4 14.6 7.2 45 6.2 WSW 22 28 12 15 1011.9 1011.9 0.0
30/05:00pm 18.8 14.5 6.9 46 6.0 WSW 19 28 10 15 1012.0 1012.0 0.0
30/04:30pm 19.1 15.1 8.4 50 5.5 WSW 19 26 10 14 1011.9 1011.9 0.0
30/04:00pm 18.7 14.7 9.2 54 5.0 SW 20 24 11 13 1011.9 1011.9 0.0
30/03:30pm 18.7 15.0 9.5 55 4.9 SW 19 24 10 13 1011.8 1011.8 0.0
30/03:00pm 18.2 14.3 9.3 56 4.7 SSW 20 30 11 16 1011.8 1011.8 0.0
30/02:30pm 19.0 13.6 8.1 49 5.6 W 26 39 14 21 1011.7 1011.7 0.0
30/02:00pm 18.7 13.7 8.1 50 5.4 WSW 24 41 13 22 1011.6 1011.6 0.0
30/01:30pm 19.0 13.4 7.1 46 6.0 WNW 26 39 14 21 1011.8 1011.8 0.0
30/01:15pm 19.1 13.1 7.2 46 6.0 W 28 46 15 25 1011.8 1011.8 0.0
30/01:00pm 19.0 12.3 7.4 47 5.9 WNW 32 41 17 22 1011.9 1011.9 0.0
30/12:32pm 19.1 13.0 8.4 50 5.5 WNW 30 48 16 26 1012.0 1012.0 0.0
30/12:30pm 19.6 13.5 8.3 48 5.9 WNW 30 41 16 22 1012.0 1012.0 0.0
30/12:00pm 19.4 12.8 8.7 50 5.6 W 33 46 18 25 1011.9 1011.9 0.0
30/11:30am 19.9 12.3 9.2 50 5.7 W 39 50 21 27 1011.5 1011.5 0.0
30/11:00am 19.1 11.3 8.1 49 5.7 W 39 50 21 27 1011.4 1011.4 0.0
30/10:30am 18.6 11.7 7.4 48 5.7 WNW 33 56 18 30 1011.7 1011.7 0.0
30/10:25am 18.3 12.2 6.8 47 5.7 WNW 28 56 15 30 1011.7 1011.7 0.0
30/10:00am 17.9 13.3 6.7 48 5.6 WNW 20 32 11 17 1011.7 1011.7 0.0
30/09:30am 17.3 11.9 6.5 49 5.3 WNW 24 35 13 19 1012.0 1012.0 0.0
30/09:00am 16.8 11.1 6.9 52 4.9 WNW 26 43 14 23 1012.0 1012.0 0.0
30/08:30am 16.5 10.6 7.7 56 4.4 WNW 28 41 15 22 1012.0 1012.0 0.0
30/08:00am 15.6 10.9 7.6 59 4.0 NNW 22 32 12 17 1011.8 1011.8 0.0
30/07:30am 14.7 10.1 6.5 58 4.0 N 20 30 11 16 1011.6 1011.6 0.0
30/07:00am 13.5 9.0 5.9 60 3.6 N 19 26 10 14 1011.4 1011.4 0.0
30/06:30am 12.7 9.2 5.6 62 3.3 N 13 17 7 9 1011.3 1011.3 0.0
30/06:00am 10.9 8.2 5.7 70 2.4 N 9 15 5 8 1011.2 1011.2 0.0
30/05:30am 10.0 7.2 5.2 72 2.2 N 9 11 5 6 1011.0 1011.0 0.0
30/05:00am 10.5 6.9 5.1 69 2.5 NNW 13 20 7 11 1011.0 1011.0 0.0
30/04:30am 10.7 6.7 4.8 67 2.7 NNW 15 19 8 10 1011.0 1011.0 0.0
30/04:00am 11.1 7.1 4.8 65 2.9 NNW 15 19 8 10 1011.1 1011.1 0.0
30/03:30am 10.9 7.2 4.4 64 2.9 NNW 13 19 7 10 1011.2 1011.2 0.0
30/03:00am 11.3 6.4 4.1 61 3.2 NNW 19 24 10 13 1011.3 1011.3 0.0
30/02:30am 11.8 4.8 4.3 60 3.4 NW 30 35 16 19 1011.2 1011.2 0.0
30/02:00am 11.9 6.8 4.2 59 3.5 NW 20 32 11 17 1011.4 1011.4 0.0
30/01:30am 11.0 6.2 4.7 65 2.8 NW 19 26 10 14 1011.8 1011.8 0.0
30/01:00am 11.2 6.7 4.2 62 3.1 NNW 17 24 9 13 1011.9 1011.9 0.0
30/12:30am 11.1 7.4 4.3 63 3.0 NNW 13 20 7 11 1011.8 1011.8 0.0
30/12:00am 11.4 7.6 3.7 59 3.4 NW 13 19 7 10 1012.0 1012.0 0.0
 
Date/Time
EDT
Temp
°C
App
Temp
°C
Dew
Point
°C
Rel
Hum
%
Delta-T
°C
Wind Press
QNH
hPa
Press
MSL
hPa
Rain since
9am
mm
Dir  Spd
km/h
Gust
km/h
Spd
kts
Gust
kts
29/11:30pm 10.9 6.1 4.4 64 2.9 NW 19 24 10 13 1012.2 1012.2 0.0
29/11:00pm 11.6 7.8 3.9 59 3.4 NNW 13 20 7 11 1012.5 1012.5 0.0
29/10:30pm 12.2 8.4 3.7 56 3.8 NNW 13 20 7 11 1012.7 1012.7 0.0
29/10:00pm 11.9 7.0 4.9 62 3.2 NW 20 24 11 13 1012.7 1012.7 0.0
29/09:30pm 12.5 9.1 4.0 56 3.8 NNW 11 17 6 9 1012.4 1012.4 0.0
29/09:00pm 12.8 8.9 3.5 53 4.2 NW 13 17 7 9 1012.1 1012.1 0.0

Other formats

Comma delimited format used in spreadsheet applications
http://www.bom.gov.au/fwo/IDT60801/IDT60801.94619.axf

JavaScript Object Notation format (JSON) in row-major order
http://www.bom.gov.au/fwo/IDT60801/IDT60801.94619.json

Data quality

Most of these data are generated automatically and are frequently updated. Quality checks on data are not normally performed. It is possible for incorrect values to appear. Refer to information at About Latest Weather Observations and please check the disclaimer before using these data.